Time;durP1;ratioP1;P1;durP2;ratioP2;P2;SDS_P1;SDS_P2;PMS_P1;PMS_P2;Temp;Humidity;BMP_temperature;BMP_pressure;BME280_temperature;BME280_humidity;BME280_pressure;Samples;Min_cycle;Max_cycle;Signal;HPM_P1;HPM_P2
2023/02/05 00:02:06;;;;;;;135.30;41.40;;;10.50;99.90;;;;;;4999289;28;20044;-70
2023/02/05 00:04:32;;;;;;;97.85;36.90;;;10.40;99.90;;;;;;5000632;28;20224;-69
2023/02/05 00:06:58;;;;;;;91.28;35.33;;;10.40;99.90;;;;;;5002921;28;20038;-70
2023/02/05 00:09:24;;;;;;;91.00;35.60;;;10.40;99.90;;;;;;4999693;28;20042;-70
2023/02/05 00:11:50;;;;;;;106.28;38.95;;;10.50;99.90;;;;;;5002200;28;20073;-68
2023/02/05 00:14:15;;;;;;;107.38;44.22;;;10.40;99.90;;;;;;5000420;28;20104;-69
2023/02/05 00:16:41;;;;;;;108.82;41.90;;;10.30;99.90;;;;;;5001351;28;20061;-68
2023/02/05 00:19:06;;;;;;;122.30;46.60;;;10.30;99.90;;;;;;5001292;28;20399;-68
2023/02/05 00:21:32;;;;;;;116.80;45.67;;;10.40;99.90;;;;;;4998825;28;20033;-68
2023/02/05 00:23:58;;;;;;;113.13;47.75;;;10.40;99.90;;;;;;5000495;28;20041;-68
2023/02/05 00:26:23;;;;;;;116.15;46.22;;;10.40;99.90;;;;;;5001232;28;20038;-68
2023/02/05 00:28:49;;;;;;;114.07;46.70;;;10.40;99.90;;;;;;5004526;28;20384;-69
2023/02/05 00:31:20;;;;;;;129.88;49.33;;;10.40;99.90;;;;;;5000106;28;20095;-69
2023/02/05 00:33:46;;;;;;;126.95;45.60;;;10.40;99.90;;;;;;5019746;28;20124;-68
2023/02/05 00:36:13;;;;;;;113.28;46.45;;;10.40;99.90;;;;;;4998920;28;20102;-68
2023/02/05 00:38:40;;;;;;;121.20;48.22;;;10.20;99.90;;;;;;5001228;28;20037;-68
2023/02/05 00:41:05;;;;;;;121.18;46.53;;;10.30;99.90;;;;;;5003500;28;20445;-68
2023/02/05 00:43:31;;;;;;;116.93;50.22;;;10.40;99.90;;;;;;5005137;28;20021;-69
2023/02/05 00:45:57;;;;;;;145.80;50.10;;;10.30;99.90;;;;;;5002120;28;20033;-68
2023/02/05 00:48:23;;;;;;;122.47;47.58;;;10.30;99.90;;;;;;5004546;28;20034;-69
2023/02/05 00:50:49;;;;;;;146.70;49.88;;;10.30;99.90;;;;;;5004748;28;20018;-69
2023/02/05 00:53:15;;;;;;;110.75;45.72;;;10.30;99.90;;;;;;5004139;28;20018;-69
2023/02/05 00:55:41;;;;;;;114.88;46.08;;;10.30;99.90;;;;;;5004254;28;20036;-68
2023/02/05 00:58:07;;;;;;;131.00;47.30;;;10.30;99.90;;;;;;5004530;28;20042;-69
2023/02/05 01:00:32;;;;;;;113.22;47.42;;;10.30;99.90;;;;;;5004810;28;20642;-67
2023/02/05 01:02:59;;;;;;;128.00;50.75;;;10.40;99.90;;;;;;5002463;28;20044;-68
2023/02/05 01:05:25;;;;;;;119.95;49.60;;;10.30;99.90;;;;;;5004843;28;20398;-68
2023/02/05 01:07:51;;;;;;;116.80;47.25;;;10.40;99.90;;;;;;5005040;28;20030;-68
2023/02/05 01:10:17;;;;;;;105.70;46.90;;;10.30;99.90;;;;;;4999061;28;20041;-68
2023/02/05 01:12:43;;;;;;;126.35;51.38;;;10.30;99.90;;;;;;5001984;28;20037;-68
2023/02/05 01:15:10;;;;;;;133.02;51.67;;;10.30;99.90;;;;;;5004726;28;20053;-68
2023/02/05 01:17:36;;;;;;;119.53;50.13;;;10.30;99.90;;;;;;5005073;28;20030;-69
2023/02/05 01:20:02;;;;;;;130.48;53.17;;;10.40;99.90;;;;;;5004304;28;20037;-69
2023/02/05 01:22:28;;;;;;;122.82;51.58;;;10.30;99.90;;;;;;5005036;28;20022;-69
2023/02/05 01:24:54;;;;;;;113.63;48.80;;;10.30;99.90;;;;;;5004301;28;20061;-68
2023/02/05 01:27:19;;;;;;;117.30;47.15;;;10.20;99.90;;;;;;5004095;28;20025;-69
2023/02/05 01:29:45;;;;;;;138.23;56.10;;;10.20;99.90;;;;;;5005637;28;20438;-68
2023/02/05 01:32:10;;;;;;;133.77;54.38;;;10.30;99.90;;;;;;5000478;28;20040;-69
2023/02/05 01:34:36;;;;;;;124.78;52.03;;;10.30;99.90;;;;;;5005119;28;20834;-68
2023/02/05 01:37:02;;;;;;;138.50;55.55;;;10.30;99.90;;;;;;5005405;28;20037;-68
2023/02/05 01:39:27;;;;;;;119.85;51.78;;;10.40;99.90;;;;;;5001082;28;20482;-67
2023/02/05 01:41:53;;;;;;;122.95;52.53;;;10.30;99.90;;;;;;5005718;28;20169;-69
2023/02/05 01:44:23;;;;;;;114.22;50.20;;;10.30;99.90;;;;;;5005557;28;20099;-68
2023/02/05 01:46:54;;;;;;;136.68;54.45;;;10.30;99.90;;;;;;5007705;28;20776;-68
2023/02/05 01:49:25;;;;;;;115.20;53.35;;;10.40;99.90;;;;;;4999609;28;20530;-68
2023/02/05 01:51:53;;;;;;;114.13;51.83;;;10.40;99.90;;;;;;5004262;28;20064;-68
2023/02/05 01:54:21;;;;;;;106.95;46.92;;;10.40;99.90;;;;;;4999880;28;20023;-69
2023/02/05 01:57:03;;;;;;;147.93;55.60;;;10.30;99.90;;;;;;5005556;28;20037;-68
2023/02/05 01:59:33;;;;;;;120.15;49.63;;;10.30;99.90;;;;;;5003979;28;20049;-68
2023/02/05 02:02:00;;;;;;;110.95;49.50;;;10.30;99.90;;;;;;5001893;28;20021;-68
2023/02/05 02:04:36;;;;;;;96.30;45.38;;;10.30;99.90;;;;;;5001917;28;20552;-68
2023/02/05 02:07:02;;;;;;;129.23;52.58;;;10.30;99.90;;;;;;5005531;28;20129;-68
2023/02/05 02:09:28;;;;;;;118.18;50.00;;;10.30;99.90;;;;;;5002601;28;20034;-69
2023/02/05 02:11:55;;;;;;;114.38;52.75;;;10.30;99.90;;;;;;5004674;28;20025;-68
2023/02/05 02:14:22;;;;;;;116.50;50.90;;;10.20;99.90;;;;;;5007530;28;20053;-68
2023/02/05 02:16:47;;;;;;;130.57;55.40;;;10.20;99.90;;;;;;5002426;28;20552;-68
2023/02/05 02:19:42;;;;;;;121.05;51.97;;;10.20;99.90;;;;;;5002313;28;20037;-69
2023/02/05 02:22:16;;;;;;;130.85;55.05;;;10.20;99.90;;;;;;4999684;28;20038;-68
2023/02/05 02:24:56;;;;;;;139.63;58.08;;;10.30;99.90;;;;;;5000245;28;20026;-68
2023/02/05 02:27:38;;;;;;;123.07;54.35;;;10.30;99.90;;;;;;5003070;28;20025;-68
2023/02/05 02:30:09;;;;;;;118.65;50.70;;;10.30;99.90;;;;;;5000829;28;20026;-68
2023/02/05 02:32:47;;;;;;;133.88;57.13;;;10.20;99.90;;;;;;5002151;28;20036;-68
2023/02/05 02:35:12;;;;;;;158.82;56.97;;;10.20;99.90;;;;;;5002550;28;20878;-68
2023/02/05 02:38:11;;;;;;;110.38;50.08;;;10.20;99.90;;;;;;5003676;28;20072;-68
2023/02/05 02:40:39;;;;;;;123.78;53.22;;;10.30;99.90;;;;;;5005285;28;20038;-68
2023/02/05 02:43:23;;;;;;;135.70;54.50;;;10.30;99.90;;;;;;5003937;28;20026;-68
2023/02/05 02:45:55;;;;;;;125.35;52.17;;;10.30;99.90;;;;;;5003510;28;20025;-68
2023/02/05 02:48:23;;;;;;;137.23;55.38;;;10.30;99.90;;;;;;4997451;28;20116;-68
2023/02/05 02:50:52;;;;;;;132.98;53.45;;;10.30;99.90;;;;;;5003610;28;20069;-68
2023/02/05 02:53:21;;;;;;;122.35;49.03;;;10.30;99.90;;;;;;5002562;28;20438;-68
2023/02/05 02:55:49;;;;;;;123.47;50.60;;;10.30;99.90;;;;;;5002603;28;20030;-68
2023/02/05 02:58:22;;;;;;;131.13;50.85;;;10.20;99.90;;;;;;5001167;28;20144;-68
2023/02/05 03:00:48;;;;;;;118.32;50.75;;;10.20;99.90;;;;;;5001380;28;20031;-68
2023/02/05 03:03:17;;;;;;;126.18;49.40;;;10.10;99.90;;;;;;5003512;28;20045;-69
2023/02/05 03:05:45;;;;;;;120.38;49.40;;;10.10;99.90;;;;;;5000610;28;20030;-68
2023/02/05 03:08:29;;;;;;;107.00;46.25;;;10.10;99.90;;;;;;4999849;28;20030;-68
2023/02/05 03:11:03;;;;;;;101.57;43.67;;;10.20;99.90;;;;;;5000945;28;20022;-68
2023/02/05 03:13:29;;;;;;;94.97;43.53;;;10.20;99.90;;;;;;5002114;28;20120;-68
2023/02/05 03:15:55;;;;;;;109.93;46.20;;;10.20;99.90;;;;;;5009080;28;20084;-68
2023/02/05 03:18:21;;;;;;;99.22;44.53;;;10.10;99.90;;;;;;5009657;28;20042;-68
2023/02/05 03:20:52;;;;;;;90.65;41.15;;;10.10;99.90;;;;;;5012213;28;20030;-68
2023/02/05 03:23:18;;;;;;;91.22;42.25;;;10.10;99.90;;;;;;5005951;28;20085;-68
2023/02/05 03:25:43;;;;;;;82.32;37.13;;;10.10;99.90;;;;;;5011345;28;20032;-68
2023/02/05 03:28:11;;;;;;;82.43;37.60;;;10.00;99.90;;;;;;5002734;28;20034;-69
2023/02/05 03:30:58;;;;;;;75.55;37.70;;;10.10;99.90;;;;;;5008200;28;20030;-68
2023/02/05 03:33:41;;;;;;;74.97;36.10;;;10.10;99.90;;;;;;5007245;28;20490;-68
2023/02/05 03:36:25;;;;;;;81.20;37.40;;;10.10;99.90;;;;;;5010497;28;20429;-69
2023/02/05 03:39:13;;;;;;;76.32;36.85;;;10.10;99.90;;;;;;5011151;28;20034;-69
2023/02/05 03:42:08;;;;;;;78.88;36.85;;;10.10;99.90;;;;;;5011720;28;20477;-68
2023/02/05 03:45:16;;;;;;;72.70;34.85;;;10.10;99.90;;;;;;5009225;28;20127;-68
2023/02/05 03:47:51;;;;;;;67.90;32.20;;;10.00;99.90;;;;;;5010418;28;20026;-69
2023/02/05 03:50:30;;;;;;;57.00;29.98;;;9.90;99.90;;;;;;5010606;28;20030;-69
2023/02/05 03:53:14;;;;;;;58.58;28.10;;;10.00;99.90;;;;;;5006697;28;20439;-69
2023/02/05 03:55:47;;;;;;;53.30;27.85;;;9.90;99.90;;;;;;5010988;28;20061;-69
2023/02/05 03:58:28;;;;;;;57.28;28.55;;;9.90;99.90;;;;;;5024521;28;20138;-68
2023/02/05 04:00:53;;;;;;;56.17;28.42;;;9.90;99.90;;;;;;5007736;28;20463;-68
2023/02/05 04:03:19;;;;;;;54.58;27.15;;;9.80;99.90;;;;;;5007302;28;20036;-69
2023/02/05 04:05:45;;;;;;;57.45;27.27;;;9.70;99.90;;;;;;5009730;28;20022;-69
2023/02/05 04:08:11;;;;;;;58.95;29.05;;;9.80;99.90;;;;;;5006210;28;20363;-68
2023/02/05 04:10:36;;;;;;;47.03;25.70;;;9.80;99.90;;;;;;5009894;28;20113;-68
2023/02/05 04:13:02;;;;;;;60.28;28.85;;;9.80;99.90;;;;;;5010222;28;20026;-69
2023/02/05 04:15:28;;;;;;;54.70;28.63;;;9.80;99.90;;;;;;5011058;28;20083;-69
2023/02/05 04:17:56;;;;;;;55.88;29.30;;;9.90;99.90;;;;;;5011900;28;20455;-68
2023/02/05 04:20:22;;;;;;;50.80;25.88;;;9.90;99.90;;;;;;5005392;28;20030;-68
2023/02/05 04:22:48;;;;;;;52.97;25.17;;;9.80;99.90;;;;;;5003267;28;20084;-69
2023/02/05 04:25:13;;;;;;;51.67;26.40;;;9.90;99.90;;;;;;5012385;28;20053;-68
2023/02/05 04:27:39;;;;;;;50.70;27.08;;;10.00;99.90;;;;;;5005131;28;20038;-68
2023/02/05 04:30:05;;;;;;;47.85;25.00;;;9.90;99.90;;;;;;5009925;28;20018;-69
2023/02/05 04:32:31;;;;;;;49.97;26.42;;;9.90;99.90;;;;;;5006983;28;20095;-68
2023/02/05 04:34:57;;;;;;;53.55;26.10;;;9.80;99.90;;;;;;5009856;28;20022;-69
2023/02/05 04:37:23;;;;;;;57.92;27.40;;;9.90;99.90;;;;;;5006270;28;20080;-69
2023/02/05 04:39:49;;;;;;;50.85;26.92;;;9.80;99.90;;;;;;5008187;28;20037;-68
2023/02/05 04:42:15;;;;;;;49.72;27.42;;;9.70;99.90;;;;;;5011466;28;20026;-69
2023/02/05 04:44:41;;;;;;;55.50;29.05;;;9.70;99.90;;;;;;5013654;28;20030;-69
2023/02/05 04:47:06;;;;;;;54.78;28.45;;;9.70;99.90;;;;;;5009411;28;20438;-68
2023/02/05 04:49:33;;;;;;;55.25;29.80;;;9.60;99.90;;;;;;5004532;28;20471;-69
2023/02/05 04:51:59;;;;;;;52.03;29.15;;;9.70;99.90;;;;;;5007096;28;20030;-68
2023/02/05 04:54:24;;;;;;;48.72;27.08;;;9.70;99.90;;;;;;5004449;28;20033;-69
2023/02/05 04:56:50;;;;;;;53.08;27.45;;;9.70;99.90;;;;;;5010089;28;20057;-69
2023/02/05 04:59:16;;;;;;;60.85;29.27;;;9.70;99.90;;;;;;5004824;28;20034;-69
2023/02/05 05:01:41;;;;;;;57.47;29.23;;;9.60;99.90;;;;;;5008761;28;20160;-68
2023/02/05 05:04:07;;;;;;;56.50;27.67;;;9.70;99.90;;;;;;5010303;28;20045;-68
2023/02/05 05:06:33;;;;;;;55.03;29.92;;;9.60;99.90;;;;;;5011679;28;20069;-68
2023/02/05 05:08:58;;;;;;;55.42;29.42;;;9.60;99.90;;;;;;5013053;28;20478;-68
2023/02/05 05:11:24;;;;;;;52.17;29.30;;;9.60;99.90;;;;;;5007242;28;20026;-69
2023/02/05 05:13:51;;;;;;;51.50;27.60;;;9.60;99.90;;;;;;5008076;28;20032;-68
2023/02/05 05:16:17;;;;;;;54.47;29.60;;;9.50;99.90;;;;;;5006955;28;20409;-68
2023/02/05 05:18:42;;;;;;;52.30;26.25;;;9.60;99.90;;;;;;5009031;28;20045;-68
2023/02/05 05:21:08;;;;;;;52.35;29.00;;;9.50;99.90;;;;;;5009088;28;20092;-68
2023/02/05 05:23:36;;;;;;;47.00;26.17;;;9.60;99.90;;;;;;5010647;28;20014;-69
2023/02/05 05:26:07;;;;;;;47.45;25.13;;;9.60;99.90;;;;;;5011649;28;20025;-68
2023/02/05 05:28:33;;;;;;;45.80;26.05;;;9.50;99.90;;;;;;5010806;28;20035;-69
2023/02/05 05:31:05;;;;;;;46.92;26.33;;;9.60;99.90;;;;;;5016281;28;20482;-68
2023/02/05 05:33:31;;;;;;;49.75;26.60;;;9.50;99.90;;;;;;5008061;28;20473;-68
2023/02/05 05:35:56;;;;;;;45.63;24.27;;;9.60;99.90;;;;;;5013448;28;20102;-68
2023/02/05 05:38:22;;;;;;;47.25;26.60;;;9.40;99.90;;;;;;5008378;28;20034;-69
2023/02/05 05:43:47;;;;;;;48.80;26.30;;;9.50;99.90;;;;;;5004703;28;20112;-68
2023/02/05 05:46:22;;;;;;;45.90;26.10;;;9.50;99.90;;;;;;5013662;28;20590;-68
2023/02/05 05:48:54;;;;;;;46.22;25.80;;;9.50;99.90;;;;;;5009031;28;20026;-69
2023/02/05 05:51:21;;;;;;;39.53;24.17;;;9.50;99.90;;;;;;5012885;28;20031;-69
2023/02/05 05:53:47;;;;;;;41.67;24.10;;;9.40;99.90;;;;;;5010540;28;20026;-68
2023/02/05 05:56:14;;;;;;;47.55;24.00;;;9.40;99.90;;;;;;5009633;28;20108;-69
2023/02/05 05:58:39;;;;;;;41.95;23.30;;;9.40;99.90;;;;;;5011724;28;20076;-68
2023/02/05 06:01:06;;;;;;;45.70;23.70;;;9.40;99.90;;;;;;5010925;28;20026;-68
2023/02/05 06:03:32;;;;;;;46.70;23.20;;;9.40;99.90;;;;;;5013504;28;20117;-68
2023/02/05 06:06:03;;;;;;;42.63;22.42;;;9.40;99.90;;;;;;5015125;28;20176;-69
2023/02/05 06:08:29;;;;;;;40.03;23.25;;;9.40;99.90;;;;;;5014122;28;20030;-69
2023/02/05 06:10:55;;;;;;;44.03;24.63;;;9.40;99.90;;;;;;5009216;28;20030;-68
2023/02/05 06:13:21;;;;;;;48.20;24.98;;;9.40;99.90;;;;;;5011969;28;20501;-68
2023/02/05 06:15:47;;;;;;;49.60;26.98;;;9.50;99.90;;;;;;5008228;28;20030;-69
2023/02/05 06:18:16;;;;;;;46.80;26.17;;;9.50;99.90;;;;;;5008374;28;20033;-68
2023/02/05 06:20:43;;;;;;;57.47;28.23;;;9.40;99.90;;;;;;5015373;28;20041;-68
2023/02/05 06:23:09;;;;;;;48.78;24.80;;;9.40;99.90;;;;;;5008552;28;20026;-68
2023/02/05 06:25:34;;;;;;;48.17;24.90;;;9.40;99.90;;;;;;5008860;28;20087;-68
2023/02/05 06:28:00;;;;;;;61.85;29.20;;;9.50;99.90;;;;;;5012910;28;20022;-69
2023/02/05 06:30:26;;;;;;;62.28;30.10;;;9.50;99.90;;;;;;5010389;28;20427;-68
2023/02/05 06:32:52;;;;;;;43.78;24.00;;;9.40;99.90;;;;;;5007058;28;20037;-68
2023/02/05 06:35:18;;;;;;;39.83;21.55;;;9.40;99.90;;;;;;5012874;28;20681;-68
2023/02/05 06:37:43;;;;;;;41.65;24.10;;;9.30;99.90;;;;;;5011642;28;20541;-68
2023/02/05 06:40:09;;;;;;;40.55;24.25;;;9.40;99.90;;;;;;5011591;28;20034;-68
2023/02/05 06:42:35;;;;;;;39.17;21.77;;;9.40;99.90;;;;;;5012135;28;20121;-68
2023/02/05 06:45:01;;;;;;;34.72;20.40;;;9.40;99.90;;;;;;5006901;28;20104;-68
2023/02/05 06:47:26;;;;;;;37.17;20.27;;;9.40;99.90;;;;;;5011987;28;20355;-68
2023/02/05 06:49:52;;;;;;;30.63;18.98;;;9.30;99.90;;;;;;5008057;28;20493;-68
2023/02/05 06:52:17;;;;;;;24.73;16.73;;;9.40;99.90;;;;;;5011446;28;20088;-68
2023/02/05 06:54:43;;;;;;;22.42;14.43;;;9.30;99.90;;;;;;5014247;28;20468;-68
2023/02/05 06:57:10;;;;;;;18.40;12.02;;;9.30;99.90;;;;;;5013406;28;20130;-68
2023/02/05 06:59:35;;;;;;;22.02;14.45;;;9.30;99.90;;;;;;5009076;28;20107;-68
2023/02/05 07:02:01;;;;;;;17.75;12.20;;;9.30;99.90;;;;;;5011785;28;20433;-68
2023/02/05 07:04:29;;;;;;;16.45;11.32;;;9.30;99.90;;;;;;5011350;28;20080;-68
2023/02/05 07:06:56;;;;;;;16.90;10.20;;;9.30;99.90;;;;;;5008784;28;20021;-68
2023/02/05 07:09:21;;;;;;;17.60;10.48;;;9.40;99.90;;;;;;5008113;28;20037;-68
2023/02/05 07:11:47;;;;;;;15.27;8.98;;;9.40;99.90;;;;;;5007909;28;20025;-68
2023/02/05 07:14:12;;;;;;;10.93;8.02;;;9.40;99.90;;;;;;5008362;28;20462;-68
2023/02/05 07:16:38;;;;;;;15.52;6.97;;;9.30;99.90;;;;;;5007742;28;20517;-69
2023/02/05 07:19:04;;;;;;;12.80;6.32;;;9.20;99.90;;;;;;5010148;28;20049;-68
2023/02/05 07:21:30;;;;;;;9.52;5.30;;;9.20;99.90;;;;;;5012051;28;20095;-67
2023/02/05 07:23:55;;;;;;;11.45;4.70;;;9.10;99.90;;;;;;5005751;28;20091;-68
2023/02/05 07:26:22;;;;;;;6.80;3.58;;;9.00;99.90;;;;;;5008891;28;20120;-69
2023/02/05 07:28:48;;;;;;;8.98;3.50;;;8.90;99.90;;;;;;5005579;28;20068;-68
2023/02/05 07:31:17;;;;;;;11.15;2.20;;;8.90;99.90;;;;;;5011922;28;20501;-67
2023/02/05 07:33:43;;;;;;;7.95;2.13;;;8.80;99.90;;;;;;5010671;28;20051;-68
2023/02/05 07:36:11;;;;;;;8.85;1.90;;;8.80;99.90;;;;;;5011182;28;20570;-68
2023/02/05 07:38:36;;;;;;;7.72;1.40;;;8.70;99.90;;;;;;5007937;28;20042;-68
2023/02/05 07:41:04;;;;;;;4.95;1.20;;;8.60;99.90;;;;;;5009593;28;20076;-68
2023/02/05 07:43:30;;;;;;;8.10;1.45;;;8.60;99.90;;;;;;5007282;28;20032;-68
2023/02/05 07:46:00;;;;;;;5.03;0.80;;;8.60;99.90;;;;;;5010912;28;20018;-68
2023/02/05 07:48:26;;;;;;;7.40;1.13;;;8.60;99.90;;;;;;5009245;28;20072;-68
2023/02/05 07:50:52;;;;;;;6.15;0.65;;;8.50;99.90;;;;;;5009647;28;20018;-68
2023/02/05 07:53:18;;;;;;;6.85;1.13;;;8.50;99.90;;;;;;5009312;28;20033;-69
2023/02/05 07:55:44;;;;;;;4.97;1.25;;;8.40;99.90;;;;;;5008170;28;20026;-68
2023/02/05 07:58:09;;;;;;;7.65;1.23;;;8.50;99.90;;;;;;5013116;28;20117;-68
2023/02/05 08:00:35;;;;;;;11.10;0.80;;;8.40;99.90;;;;;;5009480;28;20025;-68
2023/02/05 08:03:01;;;;;;;4.68;0.90;;;8.40;99.90;;;;;;5009775;28;20038;-68
2023/02/05 08:05:27;;;;;;;9.27;0.95;;;8.50;99.90;;;;;;5002710;28;20069;-68
2023/02/05 08:07:53;;;;;;;6.07;0.90;;;8.50;99.90;;;;;;5011877;28;20045;-68
2023/02/05 08:10:18;;;;;;;7.30;0.90;;;8.60;99.90;;;;;;5005153;28;20034;-68
2023/02/05 08:12:44;;;;;;;6.32;1.05;;;8.60;99.90;;;;;;5009391;28;20056;-68
2023/02/05 08:15:10;;;;;;;8.85;1.20;;;8.60;99.90;;;;;;5006003;28;20478;-68
2023/02/05 08:17:36;;;;;;;5.95;1.45;;;8.60;99.90;;;;;;5009446;28;20496;-68
2023/02/05 08:20:06;;;;;;;8.90;1.23;;;8.60;99.90;;;;;;5008762;28;20038;-68
2023/02/05 08:22:33;;;;;;;8.73;1.35;;;8.70;99.90;;;;;;5005231;28;20099;-68
2023/02/05 08:24:59;;;;;;;7.22;1.25;;;8.70;99.90;;;;;;5011979;28;20450;-68
2023/02/05 08:27:24;;;;;;;9.07;1.40;;;8.70;99.90;;;;;;5009072;28;20053;-68
2023/02/05 08:29:50;;;;;;;10.38;1.10;;;8.70;99.90;;;;;;5007706;28;20107;-68
2023/02/05 08:32:16;;;;;;;8.90;1.30;;;8.90;99.90;;;;;;5012199;28;20253;-68
2023/02/05 08:34:41;;;;;;;12.32;1.65;;;8.90;99.90;;;;;;5012685;28;20080;-69
2023/02/05 08:37:08;;;;;;;7.00;1.00;;;9.00;99.90;;;;;;5008016;28;20037;-68
2023/02/05 08:39:33;;;;;;;11.73;1.60;;;9.00;99.90;;;;;;5009551;28;20482;-68
2023/02/05 08:41:59;;;;;;;9.50;1.60;;;9.10;99.90;;;;;;5005705;28;20087;-68
2023/02/05 08:44:27;;;;;;;8.43;1.77;;;9.00;99.90;;;;;;5010023;28;20054;-69
2023/02/05 08:46:53;;;;;;;10.75;2.60;;;9.00;99.90;;;;;;5013271;28;20041;-67
2023/02/05 08:49:19;;;;;;;11.63;1.90;;;8.90;99.90;;;;;;5008778;28;20072;-67
2023/02/05 08:51:44;;;;;;;13.02;2.33;;;8.90;99.90;;;;;;5004419;28;20279;-68
2023/02/05 08:54:12;;;;;;;12.50;1.70;;;8.90;99.90;;;;;;5004327;28;22031;-68
2023/02/05 08:56:42;;;;;;;13.82;2.53;;;8.90;99.90;;;;;;5009597;28;20494;-68
2023/02/05 08:59:09;;;;;;;9.10;1.88;;;8.90;99.90;;;;;;5011705;28;20034;-68
2023/02/05 09:01:42;;;;;;;9.57;2.63;;;9.00;99.90;;;;;;5013493;28;20030;-68
2023/02/05 09:04:11;;;;;;;;;;;9.00;99.90;;;;;;5011200;28;20038;-68
2023/02/05 09:06:36;;;;;;;15.50;2.45;;;9.00;99.90;;;;;;5013697;28;19914;-68
2023/02/05 09:09:02;;;;;;;11.38;1.85;;;9.00;99.90;;;;;;5010644;28;20100;-68
2023/02/05 09:11:29;;;;;;;7.53;1.83;;;9.00;99.90;;;;;;5010553;28;20504;-69
2023/02/05 09:13:58;;;;;;;15.00;2.25;;;8.90;99.90;;;;;;5010108;28;20033;-68
2023/02/05 09:16:25;;;;;;;18.50;2.30;;;9.00;99.90;;;;;;5014560;28;20356;-69
2023/02/05 09:18:54;;;;;;;11.98;2.38;;;9.00;99.90;;;;;;5008804;28;20030;-68
2023/02/05 09:21:20;;;;;;;16.45;2.63;;;8.90;99.90;;;;;;5011885;28;20029;-68
2023/02/05 09:23:46;;;;;;;15.73;2.50;;;9.00;99.90;;;;;;5009899;28;20034;-68
2023/02/05 09:26:12;;;;;;;21.15;2.75;;;9.00;99.90;;;;;;5014413;28;20069;-68
2023/02/05 09:28:38;;;;;;;17.35;2.45;;;9.00;99.90;;;;;;5007753;28;20561;-67
2023/02/05 09:31:11;;;;;;;12.05;2.17;;;9.10;99.90;;;;;;5010809;28;20470;-68
2023/02/05 09:33:37;;;;;;;20.58;3.38;;;9.10;99.90;;;;;;5011780;28;20042;-69
2023/02/05 09:36:14;;;;;;;25.85;3.08;;;9.20;99.90;;;;;;5009067;28;20028;-68
2023/02/05 09:38:40;;;;;;;17.85;2.72;;;9.20;99.90;;;;;;5012675;28;20037;-68
2023/02/05 09:41:12;;;;;;;21.98;2.72;;;9.30;99.90;;;;;;5009248;28;20022;-68
2023/02/05 09:43:53;;;;;;;19.13;3.20;;;9.20;99.90;;;;;;5012162;28;20030;-68
2023/02/05 09:46:56;;;;;;;19.38;3.25;;;9.20;99.90;;;;;;5007306;28;20030;-68
2023/02/05 09:49:41;;;;;;;14.82;2.67;;;9.30;99.90;;;;;;5012271;28;20033;-68
2023/02/05 09:52:25;;;;;;;19.67;4.60;;;9.20;99.90;;;;;;5007590;28;20117;-68
2023/02/05 09:54:55;;;;;;;17.23;3.28;;;9.20;99.90;;;;;;5010851;28;20083;-68
2023/02/05 09:57:40;;;;;;;20.40;2.85;;;9.20;99.90;;;;;;5013378;28;20037;-68
2023/02/05 10:00:24;;;;;;;24.67;3.78;;;9.30;99.90;;;;;;5013801;28;20030;-68
2023/02/05 10:03:00;;;;;;;25.25;3.25;;;9.30;99.90;;;;;;5007167;28;20421;-68
2023/02/05 10:05:30;;;;;;;18.13;3.67;;;9.30;99.90;;;;;;5009458;28;20144;-67
2023/02/05 10:08:09;;;;;;;23.73;3.33;;;9.20;99.90;;;;;;5007847;28;20030;-68
2023/02/05 10:10:48;;;;;;;18.55;3.55;;;9.30;99.90;;;;;;5007517;28;20050;-68
2023/02/05 10:13:35;;;;;;;19.63;3.55;;;9.20;99.90;;;;;;5008485;28;20022;-67
2023/02/05 10:16:47;;;;;;;23.17;4.57;;;9.40;99.90;;;;;;5005351;28;20057;-67
2023/02/05 10:19:46;;;;;;;25.60;4.45;;;9.40;99.90;;;;;;5003760;28;20084;-68
2023/02/05 10:22:24;;;;;;;32.63;4.65;;;9.40;99.90;;;;;;5008094;28;20046;-68
2023/02/05 10:25:09;;;;;;;34.50;4.70;;;9.40;99.90;;;;;;5012647;28;20022;-68
2023/02/05 10:27:50;;;;;;;31.52;4.63;;;9.30;99.90;;;;;;5005177;28;20046;-68
2023/02/05 10:30:36;;;;;;;23.67;4.63;;;9.40;99.90;;;;;;5013261;28;20042;-68
2023/02/05 10:33:39;;;;;;;32.40;4.75;;;9.40;99.90;;;;;;5005859;28;20080;-68
2023/02/05 10:36:08;;;;;;;33.55;5.03;;;9.40;99.90;;;;;;5001532;28;20045;-68
2023/02/05 10:38:41;;;;;;;23.90;4.03;;;9.30;99.90;;;;;;5008410;28;20038;-68
2023/02/05 10:41:15;;;;;;;27.42;4.70;;;9.40;99.90;;;;;;5012624;28;20026;-68
2023/02/05 10:44:11;;;;;;;32.70;4.95;;;9.40;99.90;;;;;;5010985;28;20030;-68
2023/02/05 10:46:39;;;;;;;32.38;3.92;;;9.50;99.90;;;;;;5011034;28;20084;-68
2023/02/05 10:49:11;;;;;;;28.98;5.22;;;9.50;99.90;;;;;;5008004;28;20150;-67
2023/02/05 10:51:41;;;;;;;29.37;5.03;;;9.50;99.90;;;;;;5007304;28;20034;-68
2023/02/05 10:54:28;;;;;;;38.25;4.97;;;9.60;99.90;;;;;;5008733;28;20380;-68
2023/02/05 10:56:58;;;;;;;21.13;4.20;;;9.60;99.90;;;;;;5010101;28;20024;-68
2023/02/05 10:59:27;;;;;;;29.35;4.60;;;9.60;99.90;;;;;;5010004;28;20101;-68
2023/02/05 11:01:55;;;;;;;26.73;4.80;;;9.70;99.90;;;;;;5010584;28;20101;-68
2023/02/05 11:04:47;;;;;;;34.72;4.93;;;9.70;99.90;;;;;;5006160;28;20516;-68
2023/02/05 11:07:33;;;;;;;27.45;4.55;;;9.80;99.90;;;;;;5011640;28;20022;-68
2023/02/05 11:10:22;;;;;;;27.75;5.40;;;9.90;99.90;;;;;;5005250;28;20041;-67
2023/02/05 11:12:59;;;;;;;34.00;4.80;;;9.90;99.90;;;;;;5012384;28;20490;-67
2023/02/05 11:15:27;;;;;;;26.40;4.47;;;10.00;99.90;;;;;;5009946;28;20026;-68
2023/02/05 11:18:05;;;;;;;33.88;4.78;;;10.00;99.90;;;;;;5009982;28;20652;-68
2023/02/05 11:20:37;;;;;;;25.77;4.15;;;10.10;99.90;;;;;;5011499;28;20026;-68
2023/02/05 11:23:19;;;;;;;30.65;5.30;;;10.10;99.90;;;;;;5009636;28;20036;-69
2023/02/05 11:25:54;;;;;;;25.00;5.07;;;10.10;99.90;;;;;;5008565;28;20045;-68
2023/02/05 11:28:27;;;;;;;25.23;4.40;;;9.90;99.90;;;;;;5005899;28;20157;-69
2023/02/05 11:30:54;;;;;;;20.92;4.32;;;10.00;99.90;;;;;;5012581;28;20029;-67
2023/02/05 11:33:25;;;;;;;24.85;4.00;;;9.80;99.90;;;;;;5005064;28;20045;-68
2023/02/05 11:36:05;;;;;;;22.00;4.10;;;9.90;99.90;;;;;;5012542;28;20018;-67
2023/02/05 11:38:52;;;;;;;21.10;4.43;;;9.80;99.90;;;;;;5003000;28;20038;-68
2023/02/05 11:41:50;;;;;;;28.73;4.70;;;9.80;99.90;;;;;;5010074;28;20026;-67
2023/02/05 11:44:22;;;;;;;20.17;4.30;;;9.90;99.90;;;;;;5006165;28;20036;-68
2023/02/05 11:46:55;;;;;;;22.33;4.35;;;9.80;99.90;;;;;;5009669;28;20057;-67
2023/02/05 11:49:27;;;;;;;;;;;9.80;99.90;;;;;;5008347;28;20037;-67
2023/02/05 11:51:55;;;;;;;26.05;4.43;;;9.90;99.90;;;;;;5005436;28;19913;-68
2023/02/05 11:54:31;;;;;;;25.20;3.97;;;9.90;99.90;;;;;;5010052;28;20367;-68
2023/02/05 11:57:18;;;;;;;20.13;3.80;;;9.80;99.90;;;;;;5008646;28;20032;-67
2023/02/05 11:59:58;;;;;;;21.52;3.63;;;9.90;99.90;;;;;;5010835;28;20056;-68
2023/02/05 12:02:27;;;;;;;27.40;4.30;;;9.80;99.90;;;;;;5007854;28;20032;-67
2023/02/05 12:05:08;;;;;;;26.50;4.25;;;9.80;99.90;;;;;;5008843;28;20034;-68
2023/02/05 12:07:57;;;;;;;25.98;4.80;;;9.80;99.90;;;;;;5002953;28;20030;-67
2023/02/05 12:11:13;;;;;;;27.38;4.97;;;9.90;99.90;;;;;;5010622;28;20435;-68
2023/02/05 12:13:57;;;;;;;29.27;4.57;;;9.80;99.90;;;;;;5001773;28;20049;-67
2023/02/05 12:16:45;;;;;;;29.77;4.47;;;9.80;99.90;;;;;;5006999;28;20065;-68
2023/02/05 12:19:22;;;;;;;26.17;4.55;;;9.70;99.90;;;;;;5010269;28;20485;-67
2023/02/05 12:21:58;;;;;;;28.67;3.63;;;9.70;99.90;;;;;;5006381;28;20048;-67
2023/02/05 12:24:51;;;;;;;26.00;4.28;;;9.60;99.90;;;;;;5010935;28;20026;-68
2023/02/05 12:27:31;;;;;;;30.60;5.13;;;9.60;99.90;;;;;;5011018;28;20041;-67
2023/02/05 12:30:44;;;;;;;27.40;4.05;;;9.60;99.90;;;;;;5005048;28;20018;-68
2023/02/05 12:33:16;;;;;;;;;;;9.60;99.90;;;;;;5008983;28;20041;-68
2023/02/05 12:35:47;;;;;;;28.42;5.75;;;9.60;99.90;;;;;;5008577;28;20428;-68
2023/02/05 12:38:32;;;;;;;22.77;4.68;;;9.60;99.90;;;;;;5011989;28;20615;-67
2023/02/05 12:41:17;;;;;;;28.65;5.15;;;9.70;99.90;;;;;;5017382;28;20057;-67
2023/02/05 12:43:47;;;;;;;26.27;5.20;;;9.70;99.90;;;;;;5016597;28;20032;-68
2023/02/05 12:46:46;;;;;;;23.67;4.55;;;9.70;99.90;;;;;;5010852;28;20111;-72
2023/02/05 12:49:24;;;;;;;34.67;5.40;;;9.70;99.90;;;;;;5012048;28;20433;-69
2023/02/05 12:52:07;;;;;;;25.13;4.60;;;9.70;99.90;;;;;;5011466;28;20029;-69
2023/02/05 12:54:42;;;;;;;27.50;4.53;;;9.70;99.90;;;;;;5011467;28;20030;-69
2023/02/05 12:57:14;;;;;;;22.40;5.05;;;9.60;99.90;;;;;;5014804;28;20037;-68
2023/02/05 12:59:52;;;;;;;27.33;5.35;;;9.70;99.90;;;;;;5009131;28;20094;-69
2023/02/05 13:02:18;;;;;;;27.48;5.03;;;9.70;99.90;;;;;;5011042;28;20038;-69